createdAt,value
2018-12-15T00:00:30.214Z,0.30
2018-12-15T00:02:58.502Z,0.20
2018-12-15T00:05:27.065Z,0.20
2018-12-15T00:07:55.337Z,0.20
2018-12-15T00:10:23.978Z,0.30
2018-12-15T00:12:52.261Z,0.20
2018-12-15T00:15:20.981Z,0.30
2018-12-15T00:17:49.269Z,0.40
2018-12-15T00:20:17.901Z,0.40
2018-12-15T00:22:46.302Z,0.40
2018-12-15T00:25:15.154Z,0.30
2018-12-15T00:27:43.432Z,0.40
2018-12-15T00:30:12.134Z,0.40
2018-12-15T00:32:40.520Z,0.50
2018-12-15T00:35:09.155Z,0.50
2018-12-15T00:37:37.506Z,0.40
2018-12-15T00:40:05.974Z,0.50
2018-12-15T00:42:34.283Z,0.40
2018-12-15T00:45:02.701Z,0.40
2018-12-15T00:47:31.147Z,0.30
2018-12-15T00:49:59.423Z,0.30
2018-12-15T00:52:27.993Z,0.30
2018-12-15T00:54:56.271Z,0.20
2018-12-15T00:57:24.560Z,0.30
2018-12-15T00:59:53.040Z,0.30
2018-12-15T01:02:21.371Z,0.30
2018-12-15T01:04:49.992Z,0.30
2018-12-15T01:07:18.444Z,0.30
2018-12-15T01:09:46.992Z,0.30
2018-12-15T01:12:15.324Z,0.30
2018-12-15T01:14:43.623Z,0.20
2018-12-15T01:17:12.232Z,0.20
2018-12-15T01:19:40.510Z,0.30
2018-12-15T01:22:09.144Z,0.20
2018-12-15T01:24:37.529Z,0.20
2018-12-15T01:27:06.036Z,0.20
2018-12-15T01:29:34.342Z,0.30
2018-12-15T01:32:02.641Z,0.20
2018-12-15T01:34:31.149Z,0.30
2018-12-15T01:36:59.466Z,0.30
2018-12-15T01:39:28.089Z,0.30
2018-12-15T01:41:56.390Z,0.20
2018-12-15T01:44:25.254Z,0.30
2018-12-15T01:46:53.758Z,0.30
2018-12-15T01:49:22.172Z,0.40
2018-12-15T01:51:50.492Z,0.30
2018-12-15T01:54:19.268Z,0.30
2018-12-15T01:56:47.589Z,0.40
2018-12-15T01:59:16.166Z,0.30
2018-12-15T02:01:44.478Z,0.20
2018-12-15T02:04:13.048Z,0.10
2018-12-15T02:06:41.366Z,0.00
2018-12-15T02:09:09.651Z,0.10
2018-12-15T02:11:38.108Z,0.10
2018-12-15T02:14:06.385Z,0.00
2018-12-15T02:16:34.709Z,0.10
2018-12-15T02:19:03.257Z,0.10
2018-12-15T02:21:31.694Z,0.10
2018-12-15T02:24:00.168Z,0.20
2018-12-15T02:26:28.496Z,0.30
2018-12-15T02:28:57.080Z,0.30
2018-12-15T02:31:25.358Z,0.30
2018-12-15T02:33:53.656Z,0.30
2018-12-15T02:36:22.260Z,0.40
2018-12-15T02:38:50.662Z,0.40
2018-12-15T02:41:19.333Z,0.40
2018-12-15T02:43:47.652Z,0.30
2018-12-15T02:46:16.217Z,0.40
2018-12-15T02:48:44.536Z,0.30
2018-12-15T02:51:13.085Z,0.20
2018-12-15T02:53:41.451Z,0.20
2018-12-15T02:56:10.315Z,0.20
2018-12-15T02:58:38.722Z,0.10
2018-12-15T03:01:08.116Z,0.10
2018-12-15T03:03:36.420Z,0.10
2018-12-15T03:06:04.771Z,0.10
2018-12-15T03:08:33.223Z,0.00
2018-12-15T03:11:01.507Z,0.10
2018-12-15T03:13:30.125Z,0.10
2018-12-15T03:15:58.425Z,0.10
2018-12-15T03:18:26.807Z,0.10
2018-12-15T03:21:02.941Z,0.20
2018-12-15T03:23:31.317Z,0.20
2018-12-15T03:25:59.748Z,0.10
2018-12-15T03:28:28.329Z,0.10
2018-12-15T03:30:56.634Z,0.10
2018-12-15T03:33:25.128Z,0.10
2018-12-15T03:35:53.485Z,0.10
2018-12-15T03:38:21.925Z,0.10
2018-12-15T03:40:50.256Z,0.00
2018-12-15T03:43:18.545Z,0.10
2018-12-15T03:45:46.825Z,0.00
2018-12-15T03:48:15.445Z,0.00
2018-12-15T03:50:43.732Z,0.00
2018-12-15T03:53:12.445Z,0.10
2018-12-15T03:55:40.865Z,0.20
2018-12-15T03:58:09.422Z,0.20
2018-12-15T04:00:37.698Z,0.30
2018-12-15T04:03:06.306Z,0.30
2018-12-15T04:05:34.646Z,0.30
2018-12-15T04:08:02.945Z,0.20
2018-12-15T04:10:31.241Z,0.10
2018-12-15T04:12:59.647Z,0.10
2018-12-15T04:15:28.237Z,0.10
2018-12-15T04:18:03.484Z,0.20
2018-12-15T04:20:27.016Z,0.20
2018-12-15T04:22:55.582Z,0.20
2018-12-15T04:25:23.896Z,0.30
2018-12-15T04:27:52.380Z,0.30
2018-12-15T04:30:20.776Z,0.40
2018-12-15T04:32:49.340Z,0.40
2018-12-15T04:35:17.670Z,0.40
2018-12-15T04:37:46.076Z,0.30
2018-12-15T04:40:14.889Z,0.20
2018-12-15T04:42:43.435Z,0.10
2018-12-15T04:45:11.741Z,0.10
2018-12-15T04:47:40.540Z,0.20
2018-12-15T04:50:09.004Z,0.30
2018-12-15T04:52:37.426Z,0.30
2018-12-15T04:55:05.839Z,0.40
2018-12-15T04:57:34.434Z,0.40
2018-12-15T05:00:02.837Z,0.50
2018-12-15T05:02:31.606Z,0.50
2018-12-15T05:04:59.989Z,0.50
2018-12-15T05:07:28.394Z,0.60
2018-12-15T05:09:56.734Z,0.50
2018-12-15T05:12:25.115Z,0.60
2018-12-15T05:14:53.655Z,0.60
2018-12-15T05:17:22.057Z,0.50
2018-12-15T05:19:50.500Z,0.40
2018-12-15T05:22:19.349Z,0.40
2018-12-15T05:24:48.188Z,0.50
2018-12-15T05:27:16.975Z,0.50
2018-12-15T05:29:45.564Z,0.50
2018-12-15T05:32:14.051Z,0.50
2018-12-15T05:34:42.577Z,0.40
2018-12-15T05:37:10.863Z,0.40
2018-12-15T05:39:39.431Z,0.40
2018-12-15T05:44:36.798Z,0.50
2018-12-15T05:47:05.097Z,0.50
2018-12-15T05:49:33.611Z,0.50
2018-12-15T05:52:01.886Z,0.50
2018-12-15T05:54:30.508Z,0.50
2018-12-15T05:56:58.789Z,0.60
2018-12-15T05:59:27.153Z,0.60
2018-12-15T06:01:55.533Z,0.50
2018-12-15T06:04:23.905Z,0.50
2018-12-15T06:06:52.502Z,0.50
2018-12-15T06:09:20.860Z,0.30
2018-12-15T06:14:17.513Z,0.20
2018-12-15T06:16:45.799Z,0.00
2018-12-15T06:19:14.855Z,0.00
2018-12-15T06:21:43.143Z,0.00
2018-12-15T06:24:11.711Z,0.00
2018-12-15T06:26:40.072Z,0.10
2018-12-15T06:29:08.937Z,0.20
2018-12-15T06:31:37.429Z,0.20
2018-12-15T06:34:05.773Z,0.30
2018-12-15T06:36:34.073Z,0.20
2018-12-15T06:39:02.632Z,0.30
2018-12-15T06:41:31.486Z,0.30
2018-12-15T06:43:59.774Z,0.30
2018-12-15T06:46:28.070Z,0.20
2018-12-15T06:48:56.545Z,0.20
2018-12-15T06:53:53.022Z,0.10
2018-12-15T06:56:23.427Z,0.10
2018-12-15T07:01:19.881Z,0.20
2018-12-15T07:03:48.255Z,0.20
2018-12-15T07:06:16.928Z,0.20
2018-12-15T07:08:45.213Z,0.20
2018-12-15T07:11:13.928Z,0.20
2018-12-15T07:13:42.498Z,0.20
2018-12-15T07:16:10.834Z,0.20
2018-12-15T07:21:09.219Z,0.30
2018-12-15T07:23:37.559Z,0.30
2018-12-15T07:26:06.833Z,0.20
2018-12-15T07:28:35.357Z,0.30
2018-12-15T07:31:03.771Z,0.30
2018-12-15T07:33:32.099Z,0.40
2018-12-15T07:36:00.906Z,0.50
2018-12-15T07:38:29.570Z,0.50
2018-12-15T07:40:57.889Z,0.50
2018-12-15T07:43:26.178Z,0.50
2018-12-15T07:45:54.759Z,0.60
2018-12-15T07:48:23.189Z,0.50
2018-12-15T07:50:51.661Z,0.40
2018-12-15T07:53:19.953Z,0.30
2018-12-15T07:55:48.273Z,0.40
2018-12-15T07:58:16.896Z,0.20
2018-12-15T08:00:45.215Z,0.30
2018-12-15T08:03:13.835Z,0.40
2018-12-15T08:05:42.135Z,0.40
2018-12-15T08:08:10.704Z,0.50
2018-12-15T08:10:44.469Z,0.40
2018-12-15T08:13:14.587Z,0.40
2018-12-15T08:15:43.131Z,0.40
2018-12-15T08:18:11.734Z,0.40
2018-12-15T08:25:36.863Z,0.40
2018-12-15T08:35:31.673Z,0.50
2018-12-15T08:38:00.012Z,0.60
2018-12-15T08:40:28.327Z,0.50
2018-12-15T08:42:56.848Z,0.60
2018-12-15T08:47:53.170Z,0.60
2018-12-15T08:50:21.776Z,0.60
2018-12-15T08:52:50.166Z,0.60
2018-12-15T08:55:18.856Z,0.60
2018-12-15T08:57:47.279Z,0.60
2018-12-15T09:00:15.958Z,0.60
2018-12-15T09:05:12.479Z,0.50
2018-12-15T09:07:40.813Z,0.50
2018-12-15T09:10:09.285Z,0.50
2018-12-15T09:12:37.765Z,0.60
2018-12-15T09:15:06.356Z,0.60
2018-12-15T09:20:03.026Z,0.60
2018-12-15T09:27:27.974Z,0.50
2018-12-15T09:32:24.625Z,0.60
2018-12-15T09:34:52.959Z,0.60
2018-12-15T09:37:21.301Z,0.70
2018-12-15T09:42:17.784Z,0.70
2018-12-15T09:44:46.068Z,0.70
2018-12-15T09:47:14.512Z,0.60
2018-12-15T09:49:42.814Z,0.60
2018-12-15T09:54:39.269Z,0.40
2018-12-15T09:57:08.880Z,0.30
2018-12-15T09:59:37.152Z,0.30
2018-12-15T10:02:05.831Z,0.20
2018-12-15T10:04:34.172Z,0.20
2018-12-15T10:07:02.480Z,0.10
2018-12-15T10:09:31.012Z,0.10
2018-12-15T10:11:59.414Z,0.20
2018-12-15T10:14:27.910Z,0.20
2018-12-15T10:16:56.571Z,0.20
2018-12-15T10:19:24.976Z,0.30
2018-12-15T10:21:53.411Z,1.00
2018-12-15T10:24:22.011Z,0.30
2018-12-15T10:26:50.417Z,0.30
2018-12-15T10:29:24.529Z,0.40
2018-12-15T10:31:58.576Z,0.50
2018-12-15T10:34:27.112Z,0.60
2018-12-15T10:39:24.073Z,0.70
2018-12-15T10:44:20.642Z,0.40
2018-12-15T10:46:48.998Z,0.40
2018-12-15T10:49:17.319Z,0.50
2018-12-15T10:51:45.661Z,0.50
2018-12-15T10:54:14.642Z,0.60
2018-12-15T10:56:42.999Z,1.50
2018-12-15T10:59:11.316Z,1.80
2018-12-15T11:01:39.889Z,1.60
2018-12-15T11:04:09.299Z,1.50
2018-12-15T11:06:37.839Z,1.40
2018-12-15T11:11:36.566Z,1.20
2018-12-15T11:16:33.126Z,1.00
2018-12-15T11:19:01.538Z,1.00
2018-12-15T11:23:58.140Z,0.80
2018-12-15T11:26:26.595Z,0.80
2018-12-15T11:31:23.305Z,0.80
2018-12-15T11:33:51.610Z,0.80
2018-12-15T11:38:48.265Z,0.70
2018-12-15T11:41:16.584Z,0.80
2018-12-15T11:46:13.533Z,0.90
2018-12-15T11:53:38.255Z,0.80
2018-12-15T11:56:06.660Z,0.70
2018-12-15T11:58:35.017Z,0.80
2018-12-15T12:01:03.316Z,0.80
2018-12-15T12:03:31.689Z,0.70
2018-12-15T12:06:00.075Z,0.80
2018-12-15T12:08:28.385Z,0.60
2018-12-15T12:10:56.724Z,0.60
2018-12-15T12:13:25.293Z,0.50
2018-12-15T12:18:21.744Z,0.50
2018-12-15T12:20:50.020Z,0.60
2018-12-15T12:25:46.382Z,0.60
2018-12-15T12:28:14.725Z,0.70
2018-12-15T12:30:43.130Z,0.80
2018-12-15T12:35:39.501Z,0.80
2018-12-15T12:38:08.770Z,0.70
2018-12-15T12:40:37.069Z,0.70
2018-12-15T12:48:01.488Z,0.90
2018-12-15T12:50:30.106Z,0.80
2018-12-15T12:52:58.716Z,0.90
2018-12-15T12:55:27.305Z,0.90
2018-12-15T12:57:55.591Z,0.90
2018-12-15T13:00:23.977Z,1.00
2018-12-15T13:02:52.285Z,1.00
2018-12-15T13:05:20.614Z,1.00
2018-12-15T13:07:49.085Z,1.10
2018-12-15T13:10:17.669Z,1.20
2018-12-15T13:12:46.146Z,1.10
2018-12-15T13:15:14.460Z,1.00
2018-12-15T13:17:42.754Z,0.90
2018-12-15T13:20:11.334Z,0.90
2018-12-15T13:39:57.202Z,1.20
2018-12-15T13:49:49.622Z,0.90
2018-12-15T13:52:19.106Z,1.00
2018-12-15T13:54:47.457Z,1.00
2018-12-15T14:12:05.175Z,0.60
2018-12-15T14:24:26.074Z,0.40
2018-12-15T14:29:22.717Z,0.50
2018-12-15T14:34:20.442Z,0.60
2018-12-15T14:54:06.626Z,0.40
2018-12-15T15:01:31.380Z,0.50
2018-12-15T15:21:16.695Z,0.50
2018-12-15T15:23:45.286Z,0.50
2018-12-15T15:45:58.488Z,0.40
2018-12-15T15:48:26.808Z,0.50
2018-12-15T15:50:55.428Z,0.50
2018-12-15T15:55:51.879Z,0.50
2018-12-15T15:58:20.475Z,0.40
2018-12-15T16:00:48.742Z,0.40
2018-12-15T16:05:45.201Z,0.40
2018-12-15T16:08:13.549Z,0.50
2018-12-15T16:10:41.813Z,0.50
2018-12-15T16:15:38.472Z,0.60
2018-12-15T16:20:34.945Z,0.50
2018-12-15T16:27:59.595Z,0.40
2018-12-15T16:30:27.869Z,0.40
2018-12-15T16:32:56.534Z,0.50
2018-12-15T16:35:24.952Z,0.50
2018-12-15T16:37:53.517Z,0.50
2018-12-15T16:40:21.868Z,0.50
2018-12-15T16:45:18.562Z,0.50
2018-12-15T16:50:15.231Z,0.40
2018-12-15T16:55:12.206Z,0.40
2018-12-15T16:57:40.582Z,0.30
2018-12-15T17:00:10.765Z,0.30
2018-12-15T17:05:07.257Z,0.30
2018-12-15T17:07:35.655Z,0.30
2018-12-15T17:10:05.599Z,0.30
2018-12-15T17:15:01.984Z,0.30
2018-12-15T17:17:30.545Z,0.30
2018-12-15T17:19:58.896Z,0.30
2018-12-15T17:24:55.597Z,0.30
2018-12-15T17:27:26.798Z,0.10
2018-12-15T17:29:55.226Z,0.20
2018-12-15T17:32:23.604Z,0.30
2018-12-15T17:34:51.887Z,0.40
2018-12-15T17:37:20.529Z,0.30
2018-12-15T17:39:48.991Z,0.30
2018-12-15T17:42:17.681Z,0.30
2018-12-15T17:49:42.335Z,0.20
2018-12-15T17:52:10.790Z,0.10
2018-12-15T17:54:39.057Z,0.20
2018-12-15T17:59:36.557Z,0.20
2018-12-15T18:02:04.991Z,0.30
2018-12-15T18:24:18.619Z,0.10
2018-12-15T18:29:15.163Z,0.10
2018-12-15T18:39:07.857Z,0.00
2018-12-15T18:44:04.232Z,0.00
2018-12-15T18:46:32.823Z,0.00
2018-12-15T18:49:01.289Z,0.00
2018-12-15T18:56:25.884Z,0.00
2018-12-15T18:58:54.368Z,0.00
2018-12-15T19:01:22.930Z,-0.10
2018-12-15T19:03:51.301Z,-0.20
2018-12-15T19:06:19.921Z,-0.20
2018-12-15T19:35:58.139Z,-0.40
2018-12-15T19:43:23.164Z,-0.40
2018-12-15T19:55:44.701Z,-0.60
2018-12-15T20:03:09.801Z,-0.70
2018-12-15T20:08:06.363Z,-0.80
2018-12-15T20:10:35.028Z,-0.80
2018-12-15T20:13:03.346Z,-0.80
2018-12-15T20:15:31.847Z,-0.90
2018-12-15T20:18:00.154Z,-1.00
2018-12-15T20:20:28.744Z,-1.10
2018-12-15T20:22:57.040Z,-1.10
2018-12-15T20:25:25.443Z,-1.20
2018-12-15T20:27:53.946Z,-1.20
2018-12-15T20:30:22.349Z,-1.20
2018-12-15T20:32:50.877Z,-1.20
2018-12-15T20:35:19.263Z,-1.30
2018-12-15T20:37:47.921Z,-1.30
2018-12-15T20:40:16.605Z,-1.30
2018-12-15T20:42:44.930Z,-1.30
2018-12-15T20:45:13.546Z,-1.40
2018-12-15T20:47:42.006Z,-1.40
2018-12-15T20:50:10.414Z,-1.40
2018-12-15T20:52:39.006Z,-1.50
2018-12-15T20:55:07.588Z,-1.50
2018-12-15T20:57:35.975Z,-1.50
2018-12-15T21:00:05.830Z,-1.50
2018-12-15T21:02:34.289Z,-1.60
2018-12-15T21:05:03.019Z,-1.60
2018-12-15T21:07:31.635Z,-1.70
2018-12-15T21:10:00.294Z,-1.70
2018-12-15T21:12:28.776Z,-1.70
2018-12-15T21:14:59.151Z,-0.80
2018-12-15T21:17:27.599Z,-1.80
2018-12-15T21:19:56.259Z,-1.70
2018-12-15T21:22:24.931Z,-1.70
2018-12-15T21:24:53.250Z,-1.70
2018-12-15T21:27:21.879Z,-1.80
2018-12-15T21:29:50.318Z,-0.60
2018-12-15T21:32:18.884Z,-1.80
2018-12-15T21:34:47.263Z,-1.80
2018-12-15T21:37:15.840Z,-1.90
2018-12-15T21:39:44.228Z,-1.80
2018-12-15T21:42:12.838Z,-1.80
2018-12-15T21:44:41.201Z,-1.90
2018-12-15T21:47:10.287Z,-1.80
2018-12-15T21:49:38.881Z,-1.80
2018-12-15T21:52:07.372Z,-2.00
2018-12-15T21:54:36.091Z,-1.90
2018-12-15T21:57:04.579Z,-1.90
2018-12-15T21:59:32.941Z,-1.90
2018-12-15T22:02:01.341Z,-1.90
2018-12-15T22:04:30.092Z,-1.90
2018-12-15T22:06:59.176Z,-1.90
2018-12-15T22:09:27.591Z,-1.90
2018-12-15T22:11:58.830Z,-1.90
2018-12-15T22:14:27.134Z,-1.90
2018-12-15T22:16:55.680Z,-1.90
2018-12-15T22:19:24.186Z,-2.00
2018-12-15T22:21:52.491Z,-2.00
2018-12-15T22:24:21.279Z,-2.00
2018-12-15T22:26:49.941Z,-3.30
2018-12-15T22:29:18.409Z,-2.10
2018-12-15T22:31:47.075Z,-2.10
2018-12-15T22:34:15.428Z,-2.10
2018-12-15T22:36:43.982Z,-2.10
2018-12-15T22:39:12.274Z,-2.10
2018-12-15T22:41:41.100Z,-1.90
2018-12-15T22:44:10.252Z,-2.00
2018-12-15T22:46:38.759Z,-2.10
2018-12-15T22:49:07.377Z,-2.10
2018-12-15T22:51:35.941Z,-2.10
2018-12-15T22:54:04.582Z,-2.20
2018-12-15T22:56:33.330Z,-2.20
2018-12-15T22:59:02.633Z,-2.20
2018-12-15T23:01:33.201Z,-2.30
2018-12-15T23:04:01.579Z,-2.30
2018-12-15T23:06:30.106Z,-2.30
2018-12-15T23:08:58.485Z,-2.40
2018-12-15T23:11:28.083Z,-2.30
2018-12-15T23:13:56.466Z,-2.40
2018-12-15T23:16:27.556Z,-2.40
2018-12-15T23:18:56.185Z,-2.40
2018-12-15T23:21:24.554Z,-2.50
2018-12-15T23:23:52.856Z,-2.50
2018-12-15T23:26:21.348Z,-2.50
2018-12-15T23:28:49.727Z,-2.50
2018-12-15T23:31:18.265Z,-2.50
2018-12-15T23:33:46.593Z,-2.60
2018-12-15T23:36:15.265Z,-2.60
2018-12-15T23:38:43.698Z,-2.70
2018-12-15T23:41:12.442Z,-2.60
2018-12-15T23:43:40.810Z,-2.60
2018-12-15T23:46:10.593Z,-2.70
2018-12-15T23:48:39.243Z,-2.70
2018-12-15T23:51:07.574Z,-2.70
2018-12-15T23:53:36.246Z,-2.60
2018-12-15T23:56:04.626Z,-2.70
2018-12-15T23:58:33.242Z,-2.70
